createdAt,value
2023-04-12T05:03:19.188Z,34.63
2023-04-12T05:04:20.131Z,34.62
2023-04-12T05:05:20.133Z,34.58
2023-04-12T05:06:19.186Z,34.52
2023-04-12T05:07:20.177Z,34.56
2023-04-12T05:08:20.233Z,34.61
2023-04-12T05:09:20.264Z,34.60
2023-04-12T05:10:20.305Z,34.59
2023-04-12T05:11:20.338Z,34.53
2023-04-12T05:12:19.334Z,34.57
2023-04-12T05:13:20.344Z,34.53
2023-04-12T05:14:20.463Z,34.52
2023-04-12T05:15:19.332Z,34.55
2023-04-12T05:16:20.369Z,34.44
2023-04-12T05:17:19.343Z,33.01
2023-04-12T05:18:20.390Z,32.54
2023-04-12T05:19:20.438Z,33.08
2023-04-12T05:20:20.450Z,32.35
2023-04-12T05:21:21.040Z,32.27
2023-04-12T05:22:19.674Z,32.40
2023-04-12T05:23:20.719Z,32.55
2023-04-12T05:24:19.741Z,32.67
2023-04-12T05:25:20.761Z,33.06
2023-04-12T05:26:19.785Z,33.08
2023-04-12T05:27:19.831Z,33.38
2023-04-12T05:28:20.858Z,33.68
2023-04-12T05:29:19.852Z,33.65
2023-04-12T05:30:19.876Z,33.56
2023-04-12T05:31:19.954Z,33.61
2023-04-12T05:32:20.997Z,33.68
2023-04-12T05:33:20.012Z,33.73
2023-04-12T05:34:21.021Z,33.57
2023-04-12T05:35:21.080Z,33.54
2023-04-12T05:36:20.060Z,33.50
2023-04-12T05:37:20.079Z,33.56
2023-04-12T05:38:20.045Z,33.55
2023-04-12T05:39:21.045Z,33.61
2023-04-12T05:40:21.040Z,33.69
2023-04-12T05:41:21.071Z,33.69
2023-04-12T05:42:21.098Z,33.69
2023-04-12T05:43:21.761Z,33.75
2023-04-12T05:44:21.243Z,33.80
2023-04-12T05:45:20.273Z,33.85
2023-04-12T05:46:21.397Z,33.97
2023-04-12T05:47:21.398Z,34.03
2023-04-12T05:48:20.443Z,34.24
2023-04-12T05:49:21.618Z,34.46
2023-04-12T05:50:20.533Z,34.36
2023-04-12T05:51:30.699Z,34.64
2023-04-12T05:52:21.776Z,34.73
2023-04-12T05:53:21.630Z,34.75
2023-04-12T05:54:20.557Z,34.83
2023-04-12T05:55:21.556Z,34.94
2023-04-12T05:56:21.567Z,35.16
2023-04-12T05:57:21.546Z,35.31
2023-04-12T05:58:21.536Z,35.46
2023-04-12T05:59:20.575Z,35.69
2023-04-12T06:00:20.525Z,35.80
2023-04-12T06:01:20.509Z,35.93
2023-04-12T06:02:20.848Z,36.01
2023-04-12T06:03:20.681Z,36.01
2023-04-12T06:04:21.679Z,36.37
2023-04-12T06:05:21.481Z,36.43
2023-04-12T06:06:21.458Z,36.58
2023-04-12T06:07:21.505Z,36.54
2023-04-12T06:08:21.466Z,36.56
2023-04-12T06:09:21.452Z,36.78
2023-04-12T06:10:21.448Z,36.75
2023-04-12T06:11:21.453Z,36.84
2023-04-12T06:12:20.419Z,37.13
2023-04-12T06:13:21.415Z,37.10
2023-04-12T06:14:21.415Z,37.00
2023-04-12T06:15:20.448Z,37.05
2023-04-12T06:16:20.513Z,37.34
2023-04-12T06:17:21.420Z,37.32
2023-04-12T06:18:21.390Z,37.54
2023-04-12T06:19:21.377Z,37.55
2023-04-12T06:20:21.368Z,37.68
2023-04-12T06:21:21.348Z,37.81
2023-04-12T06:22:21.362Z,37.81
2023-04-12T06:23:21.369Z,37.50
2023-04-12T06:24:20.341Z,37.69
2023-04-12T06:25:20.329Z,37.58
2023-04-12T06:26:21.329Z,37.49
2023-04-12T06:27:21.325Z,37.74
2023-04-12T06:28:21.314Z,38.06
2023-04-12T06:29:21.360Z,38.30
2023-04-12T06:30:21.385Z,38.35
2023-04-12T06:31:20.475Z,38.39
2023-04-12T06:32:21.494Z,38.64
2023-04-12T06:33:21.705Z,38.60
2023-04-12T06:34:21.578Z,38.67
2023-04-12T06:35:21.606Z,38.78
2023-04-12T06:36:21.591Z,38.90
2023-04-12T06:37:20.622Z,38.96
2023-04-12T06:38:20.697Z,38.65
2023-04-12T06:39:20.737Z,39.05
2023-04-12T06:40:21.772Z,39.10
2023-04-12T06:41:21.834Z,39.48
2023-04-12T06:42:21.905Z,39.54
2023-04-12T06:43:20.958Z,39.51
2023-04-12T06:44:22.026Z,39.57
2023-04-12T06:45:22.183Z,39.78
2023-04-12T06:46:22.176Z,39.77
2023-04-12T06:47:22.361Z,39.89
2023-04-12T06:48:22.261Z,39.89
2023-04-12T06:49:22.608Z,40.03
2023-04-12T06:50:21.381Z,39.89
2023-04-12T06:51:21.424Z,39.85
2023-04-12T06:52:21.783Z,39.86
2023-04-12T06:53:22.539Z,39.88
2023-04-12T06:54:22.602Z,39.62
2023-04-12T06:55:22.696Z,39.81
2023-04-12T06:56:22.706Z,39.42
2023-04-12T06:57:22.798Z,39.64
2023-04-12T06:58:22.833Z,39.44
2023-04-12T06:59:22.895Z,39.20
2023-04-12T07:00:21.954Z,39.08
2023-04-12T07:01:23.061Z,38.98
2023-04-12T07:02:23.100Z,38.86
2023-04-12T07:03:23.089Z,38.43
2023-04-12T07:04:23.113Z,38.40
2023-04-12T07:05:22.014Z,38.39
2023-04-12T07:06:25.660Z,38.43
2023-04-12T07:07:23.027Z,38.37
2023-04-12T07:08:21.992Z,38.37
2023-04-12T07:09:22.991Z,38.40
2023-04-12T07:10:22.975Z,38.44
2023-04-12T07:11:23.472Z,38.40
2023-04-12T07:12:22.999Z,38.44
2023-04-12T07:13:22.942Z,38.46
2023-04-12T07:14:21.960Z,38.55
2023-04-12T07:15:22.945Z,38.48
2023-04-12T07:16:22.934Z,38.43
2023-04-12T07:17:22.111Z,38.47
2023-04-12T07:18:22.911Z,38.52
2023-04-12T07:19:22.913Z,38.55
2023-04-12T07:20:22.899Z,38.51
2023-04-12T07:21:22.041Z,38.57
2023-04-12T07:22:22.911Z,38.51
2023-04-12T07:23:21.884Z,38.51
2023-04-12T07:24:21.880Z,38.53
2023-04-12T07:25:22.907Z,38.48
2023-04-12T07:26:22.871Z,38.50
2023-04-12T07:27:22.877Z,38.46
2023-04-12T07:28:22.828Z,38.48
2023-04-12T07:29:21.843Z,38.51
2023-04-12T07:30:22.823Z,38.47
2023-04-12T07:31:22.817Z,38.46
2023-04-12T07:32:23.012Z,38.49
2023-04-12T07:33:22.989Z,38.44
2023-04-12T07:34:23.069Z,38.49
2023-04-12T07:35:22.786Z,38.46
2023-04-12T07:36:21.826Z,38.40
2023-04-12T07:37:22.773Z,38.41
2023-04-12T07:38:22.792Z,38.42
2023-04-12T07:39:22.814Z,38.43
2023-04-12T07:40:22.767Z,38.41
2023-04-12T07:41:22.747Z,38.39
2023-04-12T07:42:22.763Z,38.40
2023-04-12T07:43:22.810Z,38.29
2023-04-12T07:44:22.774Z,38.35
2023-04-12T07:45:22.781Z,38.29
2023-04-12T07:46:22.874Z,38.37
2023-04-12T07:47:22.867Z,38.45
2023-04-12T07:48:21.698Z,38.42
2023-04-12T07:49:22.695Z,38.46
2023-04-12T07:50:22.678Z,37.25
2023-04-12T07:51:22.677Z,37.96
2023-04-12T07:52:22.858Z,38.19
2023-04-12T07:53:22.656Z,38.49
2023-04-12T07:54:23.550Z,38.57
2023-04-12T07:55:21.638Z,38.39
2023-04-12T07:56:21.638Z,39.12
2023-04-12T07:57:22.630Z,39.22
2023-04-12T07:58:22.626Z,39.32
2023-04-12T07:59:22.634Z,39.36
2023-04-12T08:00:21.602Z,39.37
2023-04-12T08:01:22.623Z,39.48
2023-04-12T08:02:21.780Z,39.47
2023-04-12T08:03:23.774Z,39.73
2023-04-12T08:04:22.983Z,39.63
2023-04-12T08:05:22.911Z,39.86
2023-04-12T08:06:21.886Z,39.92
2023-04-12T08:07:23.014Z,39.96
2023-04-12T08:08:23.172Z,39.96
2023-04-12T08:09:23.067Z,40.19
2023-04-12T08:10:23.138Z,40.21
2023-04-12T08:11:23.186Z,40.13
2023-04-12T08:12:23.306Z,40.20
2023-04-12T08:13:22.295Z,40.23
2023-04-12T08:14:22.345Z,40.10
2023-04-12T08:15:22.520Z,40.35
2023-04-12T08:16:23.507Z,40.38
2023-04-12T08:17:22.501Z,40.43
2023-04-12T08:18:23.538Z,40.46
2023-04-12T08:19:23.563Z,40.45
2023-04-12T08:20:23.639Z,40.60
2023-04-12T08:21:23.653Z,40.55
2023-04-12T08:22:22.690Z,40.72
2023-04-12T08:23:23.714Z,40.76
2023-04-12T08:24:23.745Z,40.86
2023-04-12T08:25:23.810Z,40.76
2023-04-12T08:26:22.814Z,40.82
2023-04-12T08:27:23.848Z,40.93
2023-04-12T08:28:23.899Z,40.73
2023-04-12T08:29:23.932Z,40.79
2023-04-12T08:30:23.956Z,40.80
2023-04-12T08:31:23.371Z,41.10
2023-04-12T08:32:23.096Z,40.88
2023-04-12T08:33:23.048Z,41.15
2023-04-12T08:34:24.068Z,41.31
2023-04-12T08:35:23.158Z,41.25
2023-04-12T08:36:23.135Z,41.62
2023-04-12T08:37:24.172Z,41.15
2023-04-12T08:38:37.214Z,41.58
2023-04-12T08:39:24.197Z,41.61
2023-04-12T08:40:24.192Z,41.63
2023-04-12T08:41:23.185Z,41.65
2023-04-12T08:42:24.319Z,41.09
2023-04-12T08:43:24.150Z,41.12
2023-04-12T08:44:24.152Z,40.73
2023-04-12T08:45:23.139Z,39.64
2023-04-12T08:46:24.158Z,37.92
2023-04-12T08:47:23.596Z,37.25
2023-04-12T08:48:24.130Z,37.50
2023-04-12T08:49:24.137Z,37.81
2023-04-12T08:50:24.102Z,38.58
2023-04-12T08:51:24.127Z,37.00
2023-04-12T08:52:24.101Z,35.32
2023-04-12T08:53:23.091Z,34.96
2023-04-12T08:54:24.084Z,35.27
2023-04-12T08:55:24.114Z,34.91
2023-04-12T08:56:24.057Z,34.48
2023-04-12T08:57:24.328Z,34.95
2023-04-12T08:58:24.061Z,34.82
2023-04-12T08:59:24.061Z,34.78
2023-04-12T09:00:23.042Z,36.00
2023-04-12T09:01:23.048Z,36.23
2023-04-12T09:02:24.311Z,35.93
2023-04-12T09:03:23.326Z,35.39
2023-04-12T09:04:23.150Z,34.43
2023-04-12T09:05:24.098Z,33.93
2023-04-12T09:06:24.033Z,33.08
2023-04-12T09:07:22.973Z,33.01
2023-04-12T09:08:23.987Z,33.46
2023-04-12T09:09:22.966Z,33.84
2023-04-12T09:10:23.996Z,33.92
2023-04-12T09:11:23.952Z,33.86
2023-04-12T09:12:23.948Z,33.88
2023-04-12T09:13:23.951Z,34.18
2023-04-12T09:14:23.926Z,34.59
2023-04-12T09:15:23.926Z,34.15
2023-04-12T09:16:23.936Z,34.59
2023-04-12T09:17:23.957Z,34.88
2023-04-12T09:18:23.917Z,35.07
2023-04-12T09:19:23.918Z,34.97
2023-04-12T09:20:22.992Z,34.78
2023-04-12T09:21:23.969Z,34.78
2023-04-12T09:22:22.953Z,34.78
2023-04-12T09:23:24.021Z,34.65
2023-04-12T09:24:23.994Z,34.46
2023-04-12T09:25:23.974Z,34.56
2023-04-12T09:26:23.988Z,34.52
2023-04-12T09:27:23.032Z,34.46
2023-04-12T09:28:23.177Z,34.38
2023-04-12T09:29:24.236Z,34.08
2023-04-12T09:30:24.146Z,33.16
2023-04-12T09:31:24.196Z,32.60
2023-04-12T09:32:24.267Z,32.64
2023-04-12T09:33:23.190Z,32.44
2023-04-12T09:34:26.513Z,32.55
2023-04-12T09:35:24.273Z,31.99
2023-04-12T09:36:23.213Z,32.09
2023-04-12T09:37:24.177Z,32.04
2023-04-12T09:38:24.168Z,32.28
2023-04-12T09:39:24.167Z,32.74
2023-04-12T09:40:24.135Z,32.70
2023-04-12T09:41:26.717Z,32.85
2023-04-12T09:42:33.279Z,33.03
2023-04-12T09:43:24.140Z,33.07
2023-04-12T09:44:24.115Z,33.40
2023-04-12T09:45:24.232Z,33.86
2023-04-12T09:46:24.242Z,33.96
2023-04-12T09:47:23.151Z,34.01
2023-04-12T09:48:24.365Z,33.19
2023-04-12T09:49:24.080Z,33.42
2023-04-12T09:50:24.067Z,34.00
2023-04-12T09:51:24.104Z,34.12
2023-04-12T09:52:23.058Z,34.16
2023-04-12T09:53:24.358Z,34.70
2023-04-12T09:54:23.030Z,34.48
2023-04-12T09:55:23.070Z,34.11
2023-04-12T09:56:23.057Z,34.60
2023-04-12T09:57:24.043Z,34.82
2023-04-12T09:58:24.101Z,34.27
2023-04-12T09:59:24.080Z,33.95
2023-04-12T10:00:23.001Z,33.77
2023-04-12T10:01:24.133Z,35.51
2023-04-12T10:02:24.134Z,35.76
2023-04-12T10:03:24.228Z,35.84
2023-04-12T10:04:23.126Z,35.90
2023-04-12T10:05:24.220Z,36.05
2023-04-12T10:06:23.965Z,36.17
2023-04-12T10:07:23.957Z,36.42
2023-04-12T10:08:23.976Z,36.63
2023-04-12T10:09:23.906Z,36.76
2023-04-12T10:10:23.900Z,36.86
2023-04-12T10:11:22.905Z,37.22
2023-04-12T10:12:24.107Z,37.23
2023-04-12T10:13:22.937Z,37.57
2023-04-12T10:14:22.937Z,37.57
2023-04-12T10:15:23.879Z,37.79
2023-04-12T10:16:23.919Z,37.83
2023-04-12T10:17:23.892Z,38.00
2023-04-12T10:18:22.872Z,38.08
2023-04-12T10:19:23.915Z,38.30
2023-04-12T10:20:27.101Z,38.39
2023-04-12T10:21:23.900Z,38.49
2023-04-12T10:22:22.923Z,38.59
2023-04-12T10:23:23.946Z,38.67
2023-04-12T10:24:23.900Z,38.70
2023-04-12T10:25:22.906Z,38.83
2023-04-12T10:26:23.898Z,39.11
2023-04-12T10:27:22.895Z,39.26
2023-04-12T10:28:23.883Z,39.53
2023-04-12T10:29:22.871Z,39.28
2023-04-12T10:30:23.850Z,39.63
2023-04-12T10:31:23.987Z,39.64
2023-04-12T10:32:23.921Z,39.86
2023-04-12T10:33:22.917Z,40.02
2023-04-12T10:34:23.823Z,40.07
2023-04-12T10:35:23.793Z,40.20
2023-04-12T10:36:23.874Z,40.28
2023-04-12T10:37:23.797Z,40.49
2023-04-12T10:38:23.815Z,40.57
2023-04-12T10:39:23.810Z,40.45
2023-04-12T10:40:23.799Z,40.58
2023-04-12T10:41:22.819Z,40.51
2023-04-12T10:42:23.807Z,40.71
2023-04-12T10:43:23.854Z,40.33
2023-04-12T10:44:22.740Z,40.99
2023-04-12T10:45:22.777Z,40.77
2023-04-12T10:46:22.775Z,41.29
2023-04-12T10:47:23.817Z,40.79
2023-04-12T10:48:23.933Z,41.09
2023-04-12T10:49:22.737Z,41.12
2023-04-12T10:50:23.772Z,40.98
2023-04-12T10:51:23.754Z,41.04
2023-04-12T10:52:22.745Z,40.88
2023-04-12T10:53:22.802Z,41.16
2023-04-12T10:54:23.791Z,40.78
2023-04-12T10:55:23.860Z,41.02
2023-04-12T10:56:22.816Z,41.02
2023-04-12T10:57:22.821Z,41.09
2023-04-12T10:58:23.932Z,40.68
2023-04-12T10:59:27.083Z,40.62
2023-04-12T11:00:23.823Z,41.15
2023-04-12T11:01:23.946Z,41.05
2023-04-12T11:02:23.977Z,41.06
2023-04-12T11:03:23.901Z,41.18
2023-04-12T11:04:24.018Z,41.07
2023-04-12T11:05:22.871Z,41.02
2023-04-12T11:06:27.435Z,40.80
2023-04-12T11:07:23.735Z,40.99
2023-04-12T11:08:23.758Z,40.85
2023-04-12T11:09:23.730Z,41.08
2023-04-12T11:10:23.745Z,40.89
2023-04-12T11:11:23.884Z,41.11
2023-04-12T11:12:23.809Z,40.67
2023-04-12T11:13:23.877Z,40.92
2023-04-12T11:14:23.918Z,41.14
2023-04-12T11:15:23.995Z,41.08
2023-04-12T11:16:24.081Z,41.09
2023-04-12T11:17:23.977Z,41.27
2023-04-12T11:18:24.175Z,40.95
2023-04-12T11:19:24.208Z,41.02
2023-04-12T11:20:24.289Z,41.02
2023-04-12T11:21:24.343Z,41.18
2023-04-12T11:22:24.414Z,41.25
2023-04-12T11:23:23.448Z,41.20
2023-04-12T11:24:24.497Z,41.17
2023-04-12T11:25:24.572Z,41.11
2023-04-12T11:26:24.613Z,41.03
2023-04-12T11:27:24.772Z,41.10
2023-04-12T11:28:29.720Z,41.22
2023-04-12T11:29:24.824Z,41.00
2023-04-12T11:30:23.826Z,40.85
2023-04-12T11:31:23.733Z,40.64
2023-04-12T11:32:23.859Z,40.69
2023-04-12T11:33:24.694Z,40.82
2023-04-12T11:34:24.705Z,40.62
2023-04-12T11:35:24.672Z,40.61
2023-04-12T11:36:24.660Z,40.32
2023-04-12T11:37:23.686Z,40.41
2023-04-12T11:38:23.664Z,40.47
2023-04-12T11:39:23.636Z,40.20
2023-04-12T11:40:24.654Z,40.02
2023-04-12T11:41:24.633Z,39.89
2023-04-12T11:42:24.617Z,39.74
2023-04-12T11:43:23.633Z,39.74
2023-04-12T11:44:24.615Z,39.53
2023-04-12T11:45:24.595Z,39.48
2023-04-12T11:46:24.646Z,39.49
2023-04-12T11:47:24.635Z,39.48
2023-04-12T11:48:23.596Z,39.46
2023-04-12T11:49:24.561Z,39.47
2023-04-12T11:50:23.562Z,39.47
2023-04-12T11:51:23.546Z,39.45
2023-04-12T11:52:24.573Z,39.37
2023-04-12T11:53:24.607Z,39.34
2023-04-12T11:54:24.623Z,39.28
2023-04-12T11:55:24.656Z,39.37
2023-04-12T11:56:23.668Z,39.28
2023-04-12T11:57:23.656Z,39.32
2023-04-12T11:58:23.700Z,39.19
2023-04-12T11:59:24.697Z,39.31
2023-04-12T12:00:23.696Z,39.11
2023-04-12T12:01:25.406Z,39.25
2023-04-12T12:02:25.839Z,39.27
2023-04-12T12:03:23.851Z,39.26
2023-04-12T12:04:24.878Z,39.11
2023-04-12T12:05:24.940Z,39.05
2023-04-12T12:06:23.959Z,39.06
2023-04-12T12:07:25.086Z,38.98
2023-04-12T12:08:23.925Z,38.96
2023-04-12T12:09:24.878Z,38.98
2023-04-12T12:10:40.023Z,38.97
2023-04-12T12:11:24.888Z,39.06
2023-04-12T12:12:24.858Z,39.03
2023-04-12T12:13:23.899Z,39.00
2023-04-12T12:14:24.858Z,38.99
2023-04-12T12:15:24.983Z,39.04
2023-04-12T12:16:25.050Z,38.95
2023-04-12T12:17:24.871Z,39.01
2023-04-12T12:18:23.851Z,38.95
2023-04-12T12:19:24.822Z,39.09
2023-04-12T12:20:23.861Z,39.01
2023-04-12T12:21:24.830Z,39.02
2023-04-12T12:22:24.824Z,39.05
2023-04-12T12:23:24.801Z,39.08
2023-04-12T12:24:24.786Z,39.11
2023-04-12T12:25:24.757Z,39.09
2023-04-12T12:26:24.780Z,39.14
2023-04-12T12:27:23.786Z,39.08
2023-04-12T12:28:23.772Z,39.17
2023-04-12T12:29:24.735Z,39.20
2023-04-12T12:30:24.731Z,39.20
2023-04-12T12:31:24.790Z,39.22
2023-04-12T12:32:23.859Z,39.17
2023-04-12T12:33:35.075Z,39.16
2023-04-12T12:34:24.737Z,39.15
2023-04-12T12:35:24.699Z,39.16
2023-04-12T12:36:23.685Z,39.12
2023-04-12T12:37:23.672Z,39.12
2023-04-12T12:38:31.421Z,39.13
2023-04-12T12:39:24.683Z,39.14
2023-04-12T12:40:23.667Z,39.14
2023-04-12T12:41:24.656Z,39.14
2023-04-12T12:42:23.651Z,39.15
2023-04-12T12:43:24.627Z,39.04
2023-04-12T12:44:23.631Z,39.06
2023-04-12T12:45:24.647Z,39.03
2023-04-12T12:46:23.653Z,39.03
2023-04-12T12:47:24.661Z,39.05
2023-04-12T12:48:23.634Z,38.87
2023-04-12T12:49:23.615Z,38.84
2023-04-12T12:50:24.897Z,38.87
2023-04-12T12:51:24.574Z,38.82
2023-04-12T12:52:23.572Z,38.85
2023-04-12T12:53:24.766Z,38.79
2023-04-12T12:54:39.413Z,38.83
2023-04-12T12:55:24.563Z,38.79
2023-04-12T12:56:24.552Z,38.82
2023-04-12T12:57:24.537Z,38.75
2023-04-12T12:58:24.540Z,38.79
2023-04-12T12:59:25.976Z,38.78
2023-04-12T13:00:24.666Z,38.83
2023-04-12T13:01:24.694Z,38.74
2023-04-12T13:02:23.759Z,38.79
2023-04-12T13:03:24.846Z,38.78
2023-04-12T13:04:23.773Z,38.81
2023-04-12T13:05:23.791Z,38.75
2023-04-12T13:06:23.680Z,38.79
2023-04-12T13:07:24.702Z,38.73
2023-04-12T13:08:23.700Z,38.65
2023-04-12T13:09:24.735Z,38.68
2023-04-12T13:10:23.756Z,38.62
2023-04-12T13:11:23.701Z,38.62
2023-04-12T13:12:23.704Z,38.63
2023-04-12T13:13:24.713Z,38.54
2023-04-12T13:14:24.703Z,38.58
2023-04-12T13:15:24.790Z,38.57
2023-04-12T13:16:26.264Z,38.57
2023-04-12T13:17:24.693Z,38.53
2023-04-12T13:18:24.676Z,38.58
2023-04-12T13:19:24.747Z,38.60
2023-04-12T13:20:23.663Z,38.65
2023-04-12T13:21:24.679Z,38.52
2023-04-12T13:22:24.651Z,38.56
2023-04-12T13:23:24.655Z,38.54
2023-04-12T13:24:24.655Z,38.46
2023-04-12T13:25:24.659Z,38.44
2023-04-12T13:26:23.639Z,38.35
2023-04-12T13:27:24.626Z,38.37
2023-04-12T13:28:24.635Z,38.41
2023-04-12T13:29:23.631Z,38.37
2023-04-12T13:30:23.593Z,38.32
2023-04-12T13:31:24.593Z,38.39
2023-04-12T13:32:24.606Z,38.35
2023-04-12T13:33:24.730Z,38.24
2023-04-12T13:34:24.576Z,38.22
2023-04-12T13:35:24.603Z,38.23
2023-04-12T13:36:23.575Z,38.21
2023-04-12T13:37:24.538Z,38.17
2023-04-12T13:38:24.542Z,38.18
2023-04-12T13:39:24.531Z,38.13
2023-04-12T13:40:23.524Z,38.20
2023-04-12T13:41:23.533Z,38.12
2023-04-12T13:42:24.506Z,38.12
2023-04-12T13:43:23.497Z,38.18
2023-04-12T13:44:23.503Z,38.13
2023-04-12T13:45:24.501Z,38.14
2023-04-12T13:46:23.545Z,38.14
2023-04-12T13:47:24.513Z,38.17
2023-04-12T13:48:24.527Z,38.12
2023-04-12T13:49:23.476Z,38.08
2023-04-12T13:50:23.448Z,38.35
2023-04-12T13:51:24.539Z,38.32
2023-04-12T13:52:24.448Z,38.64
2023-04-12T13:53:24.442Z,38.45
2023-04-12T13:54:24.438Z,38.29
2023-04-12T13:55:24.419Z,38.25
2023-04-12T13:56:24.430Z,38.22
2023-04-12T13:57:24.396Z,38.14
2023-04-12T13:58:23.406Z,38.10
2023-04-12T13:59:24.580Z,38.01
2023-04-12T14:00:24.376Z,38.02
2023-04-12T14:01:23.455Z,37.90
2023-04-12T14:02:23.421Z,37.95
2023-04-12T14:03:24.382Z,37.84
2023-04-12T14:04:23.452Z,37.87
2023-04-12T14:05:24.350Z,37.79
2023-04-12T14:06:23.348Z,37.84
2023-04-12T14:07:24.395Z,37.78
2023-04-12T14:08:23.331Z,37.77
2023-04-12T14:09:24.343Z,37.74
2023-04-12T14:10:24.319Z,37.84
2023-04-12T14:11:24.302Z,37.73
2023-04-12T14:12:24.355Z,37.75
2023-04-12T14:13:23.409Z,37.73
2023-04-12T14:14:24.508Z,37.70
2023-04-12T14:15:24.538Z,37.67
2023-04-12T14:16:23.592Z,37.61
2023-04-12T14:17:23.801Z,37.62
2023-04-12T14:18:23.816Z,37.60
2023-04-12T14:19:23.773Z,37.58
2023-04-12T14:20:24.838Z,37.67
2023-04-12T14:21:24.891Z,37.63
2023-04-12T14:22:24.959Z,37.45
2023-04-12T14:23:25.062Z,37.51
2023-04-12T14:24:25.086Z,37.44
2023-04-12T14:25:25.141Z,37.50
2023-04-12T14:26:24.179Z,37.50
2023-04-12T14:27:25.255Z,37.51
2023-04-12T14:28:25.305Z,37.38
2023-04-12T14:29:25.402Z,37.50
2023-04-12T14:30:25.427Z,37.51
2023-04-12T14:31:25.604Z,37.46
2023-04-12T14:32:25.629Z,37.40
2023-04-12T14:33:24.622Z,37.37
2023-04-12T14:34:25.767Z,37.38
2023-04-12T14:35:25.741Z,37.35
2023-04-12T14:36:24.806Z,37.32
2023-04-12T14:37:24.838Z,37.28
2023-04-12T14:38:25.994Z,37.18
2023-04-12T14:39:24.993Z,37.31
2023-04-12T14:40:25.041Z,37.22
2023-04-12T14:41:26.088Z,37.28
2023-04-12T14:42:26.174Z,37.25
2023-04-12T14:43:26.206Z,37.31
2023-04-12T14:44:26.582Z,37.25
2023-04-12T14:45:25.339Z,37.23
2023-04-12T14:46:26.445Z,37.19
2023-04-12T14:47:25.490Z,37.30
2023-04-12T14:48:25.523Z,37.30
2023-04-12T14:49:25.592Z,37.21
2023-04-12T14:50:25.642Z,37.18
2023-04-12T14:51:25.669Z,37.20
2023-04-12T14:52:26.718Z,37.11
2023-04-12T14:53:26.776Z,37.25
2023-04-12T14:54:26.811Z,37.26
2023-04-12T14:55:26.912Z,37.18
2023-04-12T14:56:28.001Z,37.13
2023-04-12T14:57:26.904Z,36.90
2023-04-12T14:58:25.912Z,37.12
2023-04-12T14:59:26.936Z,37.11
2023-04-12T15:00:25.887Z,37.03
2023-04-12T15:01:26.889Z,37.01
2023-04-12T15:02:26.054Z,36.99
2023-04-12T15:03:26.986Z,37.03
2023-04-12T15:04:26.006Z,36.95
2023-04-12T15:05:26.959Z,36.89
2023-04-12T15:06:25.858Z,36.95
2023-04-12T15:07:25.872Z,36.84
2023-04-12T15:08:25.836Z,36.93
2023-04-12T15:09:26.837Z,36.96
2023-04-12T15:10:26.817Z,36.94
2023-04-12T15:11:27.587Z,36.97
2023-04-12T15:12:26.803Z,37.03
2023-04-12T15:13:32.398Z,37.06
2023-04-12T15:14:26.814Z,36.90
2023-04-12T15:15:25.777Z,36.96
2023-04-12T15:16:26.789Z,37.06
2023-04-12T15:17:26.778Z,36.94
2023-04-12T15:18:26.750Z,36.91
2023-04-12T15:19:25.754Z,36.94
2023-04-12T15:20:26.766Z,36.93
2023-04-12T15:21:25.748Z,36.92
2023-04-12T15:22:26.729Z,36.81
2023-04-12T15:23:26.755Z,36.96
2023-04-12T15:24:26.706Z,36.83
2023-04-12T15:25:25.707Z,36.99
2023-04-12T15:26:26.696Z,36.82
2023-04-12T15:27:26.768Z,37.00
2023-04-12T15:28:26.701Z,36.95
2023-04-12T15:29:25.796Z,37.04
